首页
METAR-TAF:

METAR-TAF

机场 :

恩贾梅纳国际机场

恩賈梅納, 乍得

纬度: 12-08N, 经度: 015-02E, 海拔: 295米

当前天气观测

该预报发布于1小时和23分钟前的13:00 UTC
风速9节,风向西南
温度 38°C
湿度 33%
气压 1009 hPa
能見度: 8000

METAR: FTTJ 261300Z 23009KT 8000 NSC 38/19 Q1009 NOSIG

时间: 15:23 (14:23 UTC)

预报

该预报发布于3小时和23分钟前的11:00 UTC
预报有效从26日的 12点(UTC)到 27日的 18点(UTC)
风速10节,风向西南
能見度: 8000
少量云层高于4000英尺
短暂存在
从 26日的 13点(UTC)到 26日的 17点(UTC)
风速5节,风向多变
几率 30% :
短暂存在
从 26日的 18点(UTC)到 26日的 22点(UTC)
风速22节,风向多变
能見度: 2500
雷暴, 雨
几率 30% :
短暂存在
从 27日的 15点(UTC)到 27日的 18点(UTC)
雷暴,

TAF: FTTJ 261100Z 2612/2718 22010KT 8000 FEW040 TEMPO 2613/2617 VRB05KT PROB30 TEMPO 2618/2622 VRB22KT 2500 TSRA PROB30 TEMPO 2715/2718 TS

超过4000个机场的气象观测和天气预报(METAR&TAF报告)。

可查询的气象台以黄色和红色小点在地图上表示。

将鼠标移到小点上方,可查看气象台名称。

然后点击查看天气观测和预报。

如需切换地图:点击带黑十字的绿色按钮放大地图;点击带横线的绿色按钮缩小地图;或者点击绿色箭头查看邻近地区的地图。


METAR-TAF: